Time;durP1;ratioP1;P1;durP2;ratioP2;P2;SDS_P1;SDS_P2;PMS_P1;PMS_P2;Temp;Humidity;BMP_temperature;BMP_pressure;BME280_temperature;BME280_humidity;BME280_pressure;Samples;Min_cycle;Max_cycle;Signal;HPM_P1;HPM_P2
2023/04/30 00:00:31;;;;;;;7.37;3.83;;;;;;;6.90;90.51;101324.91;4997639;28;20608;-83
2023/04/30 00:02:58;;;;;;;7.27;3.77;;;;;;;6.72;90.87;101326.44;4997811;28;20212;-84
2023/04/30 00:05:25;;;;;;;4.97;4.23;;;;;;;6.69;91.15;101321.22;4999059;28;20298;-84
2023/04/30 00:07:51;;;;;;;10.00;3.80;;;;;;;6.72;90.60;101316.06;5003219;28;21501;-82
2023/04/30 00:10:17;;;;;;;5.13;3.93;;;;;;;6.73;91.05;101323.00;4999740;28;20232;-84
2023/04/30 00:12:44;;;;;;;3.67;3.07;;;;;;;6.70;90.72;101319.47;4997974;28;20204;-83
2023/04/30 00:15:11;;;;;;;4.93;3.83;;;;;;;6.69;91.36;101321.22;4997751;28;20246;-82
2023/04/30 00:17:37;;;;;;;6.83;4.10;;;;;;;6.72;91.24;101323.00;4997539;28;20205;-83
2023/04/30 00:20:07;;;;;;;10.60;3.80;;;;;;;6.79;90.77;101311.81;4997905;28;20624;-84
2023/04/30 00:22:33;;;;;;;7.37;3.73;;;;;;;6.94;91.11;101321.50;4998274;28;20214;-84
2023/04/30 00:24:59;;;;;;;6.90;3.47;;;;;;;7.05;89.84;101332.84;4997952;28;20224;-83
2023/04/30 00:27:26;;;;;;;4.80;3.60;;;;;;;7.02;89.26;101351.00;4998426;28;20208;-83
2023/04/30 00:29:53;;;;;;;5.53;3.73;;;;;;;6.93;89.54;101362.13;4997628;28;20334;-84
2023/04/30 00:32:19;;;;;;;4.00;3.60;;;;;;;6.88;90.39;101353.44;4997641;28;20212;-82
2023/04/30 00:34:46;;;;;;;5.50;3.93;;;;;;;6.57;91.39;101331.47;4997705;28;20267;-83
2023/04/30 00:37:13;;;;;;;10.33;4.47;;;;;;;6.13;95.15;101287.72;4997848;28;20302;-85
2023/04/30 00:39:40;;;;;;;7.10;5.37;;;;;;;5.84;97.17;101233.72;4997577;28;20224;-84
2023/04/30 00:42:07;;;;;;;6.20;5.60;;;;;;;5.70;98.83;101181.72;4997214;28;20679;-85
2023/04/30 00:44:33;;;;;;;7.87;5.33;;;;;;;5.66;100.00;101135.94;5001149;28;20206;-85
2023/04/30 00:46:59;;;;;;;7.00;5.60;;;;;;;5.68;100.00;101128.19;5017594;28;20236;-85
2023/04/30 00:49:26;;;;;;;7.57;5.67;;;;;;;5.71;100.00;101110.09;5016932;28;20709;-84
2023/04/30 00:51:53;;;;;;;10.13;5.37;;;;;;;5.66;100.00;101103.97;5016957;28;20210;-84
2023/04/30 00:54:21;;;;;;;9.47;4.93;;;;;;;5.75;100.00;101102.38;5017048;28;20682;-85
2023/04/30 00:56:48;;;;;;;6.10;5.10;;;;;;;5.78;100.00;101120.53;5017211;28;20214;-84
2023/04/30 00:59:14;;;;;;;8.60;5.20;;;;;;;5.67;100.00;101119.53;5016812;28;20250;-84
2023/04/30 01:01:41;;;;;;;5.97;4.83;;;;;;;5.66;100.00;101114.34;5016995;28;20203;-83
2023/04/30 01:04:07;;;;;;;6.97;5.33;;;;;;;5.68;100.00;101120.41;5017063;28;20702;-84
2023/04/30 01:06:33;;;;;;;6.87;4.57;;;;;;;5.79;100.00;101129.19;5016969;28;20228;-84
2023/04/30 01:09:00;;;;;;;6.30;5.00;;;;;;;5.80;99.93;101135.22;5015973;28;20205;-85
2023/04/30 01:11:36;;;;;;;7.03;5.03;;;;;;;5.80;99.18;101149.03;5015182;28;20204;-83
2023/04/30 01:14:10;;;;;;;6.53;4.73;;;;;;;5.62;99.56;101146.25;4997304;28;20278;-83
2023/04/30 01:16:43;;;;;;;4.90;4.17;;;;;;;5.53;100.00;101144.38;4978669;28;20209;-84
2023/04/30 01:19:35;;;;;;;6.33;4.77;;;;;;;5.49;100.00;101140.91;4977981;28;20264;-83
2023/04/30 01:22:04;;;;;;;6.57;4.70;;;;;;;5.38;100.00;101134.69;4977586;28;20210;-84
2023/04/30 01:24:48;;;;;;;4.93;4.33;;;;;;;5.48;100.00;101140.88;4977816;28;20208;-83
2023/04/30 01:27:30;;;;;;;6.50;4.03;;;;;;;5.49;100.00;101146.09;4977563;28;20200;-85
2023/04/30 01:29:58;;;;;;;5.07;4.50;;;;;;;5.55;100.00;101151.34;4977777;28;20237;-82
2023/04/30 01:32:24;;;;;;;6.70;4.50;;;;;;;5.58;100.00;101161.72;4977850;28;20201;-84
2023/04/30 01:34:50;;;;;;;6.47;4.33;;;;;;;5.68;99.27;101170.47;4977811;28;20710;-84
2023/04/30 01:37:24;;;;;;;7.13;3.80;;;;;;;5.65;98.59;101191.19;4977647;28;20204;-85
2023/04/30 01:40:03;;;;;;;9.77;4.10;;;;;;;5.61;98.04;101209.22;4977349;28;20228;-83
2023/04/30 01:42:36;;;;;;;8.60;4.37;;;;;;;5.41;98.84;101201.19;4988404;28;20243;-84
2023/04/30 01:45:22;;;;;;;5.03;4.20;;;;;;;5.34;99.55;101197.66;4996761;28;20200;-85
2023/04/30 01:47:57;;;;;;;6.77;4.50;;;;;;;5.40;99.76;101183.91;4996952;28;20217;-84
2023/04/30 01:50:31;;;;;;;6.80;4.10;;;;;;;5.25;100.00;101197.50;4996811;28;20316;-84
2023/04/30 01:53:01;;;;;;;6.97;4.10;;;;;;;5.17;100.00;101184.44;4996702;28;20683;-85
2023/04/30 01:55:33;;;;;;;4.10;3.73;;;;;;;5.16;100.00;101173.22;4996564;28;20205;-84
2023/04/30 01:58:02;;;;;;;4.50;3.83;;;;;;;5.25;100.00;101169.91;4996888;28;20264;-85
2023/04/30 02:00:30;;;;;;;11.97;4.37;;;;;;;5.29;100.00;101178.56;4996738;28;20228;-84
2023/04/30 02:02:56;;;;;;;10.37;3.87;;;;;;;5.37;100.00;101183.03;4996843;28;20239;-85
2023/04/30 02:05:23;;;;;;;3.73;3.40;;;;;;;5.38;99.09;101197.69;4996930;28;20235;-84
2023/04/30 02:07:51;;;;;;;5.50;3.27;;;;;;;5.37;99.34;101219.28;4996559;28;20224;-83
2023/04/30 02:10:20;;;;;;;4.50;3.60;;;;;;;5.34;98.92;101220.94;4996213;28;20279;-85
2023/04/30 02:12:47;;;;;;;7.10;3.30;;;;;;;5.31;99.57;101219.19;4997189;28;20228;-86
2023/04/30 02:15:14;;;;;;;3.67;3.17;;;;;;;5.37;99.40;101223.56;4997142;28;20212;-86
2023/04/30 02:17:42;;;;;;;10.60;4.80;;;;;;;5.42;99.00;101229.69;4996853;28;20219;-85
2023/04/30 02:20:09;;;;;;;6.40;3.57;;;;;;;5.49;98.51;101239.31;4996523;28;20229;-85
2023/04/30 02:22:35;;;;;;;4.80;3.97;;;;;;;5.29;99.04;101254.53;4996176;28;20876;-85
2023/04/30 02:25:02;;;;;;;5.90;4.30;;;;;;;5.23;99.32;101236.28;4995637;28;20256;-83
2023/04/30 02:27:30;;;;;;;5.70;3.50;;;;;;;5.26;99.93;101232.91;4995875;28;20602;-84
2023/04/30 02:29:57;;;;;;;4.57;4.07;;;;;;;5.23;99.54;101227.66;4995751;28;20236;-83
2023/04/30 02:32:23;;;;;;;4.90;3.63;;;;;;;5.23;99.98;101227.66;4995732;28;20242;-85
2023/04/30 02:34:51;;;;;;;4.97;3.33;;;;;;;5.14;100.00;101224.09;4996384;28;20255;-83
2023/04/30 02:37:17;;;;;;;6.87;4.37;;;;;;;5.20;100.00;101225.91;4996463;28;20231;-85
2023/04/30 02:39:44;;;;;;;3.90;3.50;;;;;;;5.34;99.92;101226.13;4996548;28;20231;-84
2023/04/30 02:42:10;;;;;;;7.30;3.70;;;;;;;5.37;98.87;101232.22;4996182;28;20212;-83
2023/04/30 02:44:36;;;;;;;4.03;3.67;;;;;;;5.48;98.09;101244.44;4996047;28;20771;-84
2023/04/30 02:47:03;;;;;;;5.47;4.80;;;;;;;5.56;97.43;101256.66;4996131;28;20294;-83
2023/04/30 02:49:29;;;;;;;3.73;3.37;;;;;;;5.64;96.46;101274.91;4996575;28;20236;-85
2023/04/30 02:51:57;;;;;;;6.50;3.80;;;;;;;5.67;95.97;101299.97;4995584;28;20207;-83
2023/04/30 02:54:23;;;;;;;6.80;3.80;;;;;;;5.71;96.17;101318.19;4994703;28;20326;-85
2023/04/30 02:56:49;;;;;;;5.43;3.80;;;;;;;5.82;94.80;101336.47;4994686;28;20201;-83
2023/04/30 02:59:16;;;;;;;4.43;3.57;;;;;;;5.83;94.11;101343.41;4994385;28;20231;-84
2023/04/30 03:01:42;;;;;;;7.37;3.63;;;;;;;5.89;94.04;101359.03;4994646;28;20212;-84
2023/04/30 03:04:08;;;;;;;4.77;3.67;;;;;;;5.76;94.05;101377.81;4994367;28;20205;-85
2023/04/30 03:06:35;;;;;;;10.27;4.60;;;;;;;5.64;94.41;101365.53;4994389;28;20273;-84
2023/04/30 03:09:03;;;;;;;7.63;4.30;;;;;;;5.52;95.53;101348.09;4994266;28;20266;-85
2023/04/30 03:11:29;;;;;;;7.87;4.27;;;;;;;5.64;95.74;101337.06;4993990;28;20250;-84
2023/04/30 03:13:55;;;;;;;6.40;3.90;;;;;;;5.68;95.15;101340.56;4994758;28;20203;-85
2023/04/30 03:16:22;;;;;;;4.30;3.70;;;;;;;5.76;95.41;101352.78;4994314;28;20200;-84
2023/04/30 03:18:49;;;;;;;4.47;3.67;;;;;;;5.81;94.06;101364.94;4995010;28;20267;-84
2023/04/30 03:21:15;;;;;;;5.50;3.73;;;;;;;5.79;94.43;101377.88;4994764;28;20722;-84
2023/04/30 03:23:42;;;;;;;8.07;3.50;;;;;;;5.85;93.41;101385.75;4995360;28;20209;-84
2023/04/30 03:26:09;;;;;;;3.67;3.20;;;;;;;5.87;93.59;101397.00;4995391;28;20231;-84
2023/04/30 03:28:36;;;;;;;3.93;3.10;;;;;;;5.91;92.29;101409.16;4995958;28;20209;-84
2023/04/30 03:31:04;;;;;;;4.93;3.57;;;;;;;5.91;92.36;101414.34;4995405;28;20227;-84
2023/04/30 03:33:30;;;;;;;4.90;3.17;;;;;;;5.95;92.06;101412.72;4994253;28;20240;-83
2023/04/30 03:35:56;;;;;;;3.30;3.00;;;;;;;5.97;92.27;101435.22;4994194;28;20259;-84
2023/04/30 03:38:23;;;;;;;3.67;2.97;;;;;;;5.95;91.13;101443.81;4994376;28;20212;-84
2023/04/30 03:40:49;;;;;;;4.43;3.10;;;;;;;5.75;91.16;101449.50;4993634;28;20258;-85
2023/04/30 03:43:17;;;;;;;5.47;3.17;;;;;;;5.68;92.19;101439.00;4994007;28;20208;-84
2023/04/30 03:45:43;;;;;;;5.90;4.03;;;;;;;5.48;92.84;101443.84;4994202;28;20231;-84
2023/04/30 03:48:09;;;;;;;7.03;3.70;;;;;;;5.30;94.13;101415.88;4993837;28;20204;-84
2023/04/30 03:50:36;;;;;;;5.33;3.80;;;;;;;5.23;95.69;101372.59;4994040;28;20225;-85
2023/04/30 03:53:02;;;;;;;6.30;3.90;;;;;;;5.28;95.73;101363.22;4994075;28;20212;-85
2023/04/30 03:55:29;;;;;;;4.90;3.70;;;;;;;5.34;95.39;101356.41;4994739;28;20207;-83
2023/04/30 03:57:55;;;;;;;4.10;3.70;;;;;;;5.45;96.00;101356.63;4994468;28;20205;-84
2023/04/30 04:00:23;;;;;;;7.80;3.93;;;;;;;5.50;94.70;101374.81;4994224;28;20232;-83
2023/04/30 04:02:49;;;;;;;5.20;4.10;;;;;;;5.57;94.64;101374.94;4994396;28;20218;-84
2023/04/30 04:05:16;;;;;;;5.53;3.57;;;;;;;5.62;94.26;101392.28;4994587;28;20200;-84
2023/04/30 04:07:42;;;;;;;5.70;3.97;;;;;;;5.59;94.00;101393.09;4994696;28;20227;-84
2023/04/30 04:10:09;;;;;;;7.07;3.67;;;;;;;5.41;94.25;101397.94;4995162;28;20228;-84
2023/04/30 04:12:35;;;;;;;4.83;3.67;;;;;;;5.41;94.93;101387.59;4993295;28;20659;-84
2023/04/30 04:15:01;;;;;;;4.40;4.00;;;;;;;5.42;94.43;101389.34;4995153;28;20245;-83
2023/04/30 04:17:29;;;;;;;4.60;4.03;;;;;;;5.42;94.48;101394.53;4995025;28;20207;-84
2023/04/30 04:19:55;;;;;;;4.80;4.30;;;;;;;5.47;94.74;101388.59;4994539;28;20235;-85
2023/04/30 04:22:22;;;;;;;10.13;4.40;;;;;;;5.44;94.41;101396.28;4994517;28;20212;-84
2023/04/30 04:24:48;;;;;;;7.20;4.17;;;;;;;5.27;95.14;101397.69;4994800;28;20259;-84
2023/04/30 04:27:15;;;;;;;8.23;4.97;;;;;;;5.22;95.76;101376.91;4994715;28;20227;-84
2023/04/30 04:29:41;;;;;;;5.40;4.70;;;;;;;5.20;97.04;101360.50;5019920;22;20319;-82
2023/04/30 04:32:09;;;;;;;4.77;4.20;;;;;;;5.31;96.67;101348.63;5014445;28;20271;-79
2023/04/30 04:34:37;;;;;;;6.37;4.13;;;;;;;5.35;96.73;101352.09;5015259;28;20635;-80
2023/04/30 04:37:03;;;;;;;4.43;3.63;;;;;;;5.31;97.02;101352.91;5016029;28;20199;-79
2023/04/30 04:39:30;;;;;;;5.47;4.17;;;;;;;5.44;96.49;101346.22;5014988;28;20210;-79
2023/04/30 04:41:57;;;;;;;7.23;4.27;;;;;;;5.55;96.60;101349.88;5015243;28;20683;-79
2023/04/30 04:44:23;;;;;;;7.63;4.53;;;;;;;5.60;96.11;101357.72;5017293;28;20305;-79
2023/04/30 04:46:52;;;;;;;5.87;3.70;;;;;;;5.61;95.80;101367.22;5019177;28;20236;-78
2023/04/30 04:49:19;;;;;;;4.90;4.00;;;;;;;5.63;96.17;101374.19;5018960;28;20258;-78
2023/04/30 04:51:46;;;;;;;4.40;3.93;;;;;;;5.65;95.69;101381.94;5019159;28;20774;-79
2023/04/30 04:54:13;;;;;;;6.87;4.00;;;;;;;5.75;94.96;101381.28;5018451;28;20299;-79
2023/04/30 04:56:39;;;;;;;4.23;3.83;;;;;;;5.77;95.59;101390.81;5018802;28;20206;-79
2023/04/30 04:59:07;;;;;;;4.43;4.03;;;;;;;5.83;95.04;101402.09;5017972;28;20208;-79
2023/04/30 05:01:33;;;;;;;5.87;4.10;;;;;;;5.90;94.66;101404.81;5018507;28;20803;-78
2023/04/30 05:03:59;;;;;;;5.87;4.30;;;;;;;5.85;95.36;101413.38;5018903;28;20265;-78
2023/04/30 05:06:25;;;;;;;4.67;4.10;;;;;;;5.95;95.07;101411.00;5018657;28;20254;-78
2023/04/30 05:08:53;;;;;;;6.13;4.23;;;;;;;6.08;95.01;101418.94;5018911;28;20207;-79
2023/04/30 05:11:20;;;;;;;5.90;4.00;;;;;;;6.15;94.61;101429.44;5019125;28;20227;-79
2023/04/30 05:13:47;;;;;;;9.23;4.00;;;;;;;6.24;93.85;101433.88;5018836;28;20297;-79
2023/04/30 05:16:13;;;;;;;9.53;4.37;;;;;;;6.30;93.71;101444.38;5018403;28;20211;-79
2023/04/30 05:18:39;;;;;;;8.07;3.80;;;;;;;6.39;92.88;101458.31;5018529;28;20677;-78
2023/04/30 05:21:06;;;;;;;4.17;3.73;;;;;;;6.39;93.53;101464.34;5019999;28;20325;-79
2023/04/30 05:23:32;;;;;;;6.00;3.73;;;;;;;6.46;92.88;101478.28;5018388;28;20203;-79
2023/04/30 05:26:00;;;;;;;5.67;3.80;;;;;;;6.45;92.20;101490.38;5018331;28;20622;-79
2023/04/30 05:28:26;;;;;;;7.53;3.50;;;;;;;6.52;92.18;101497.41;5017688;28;20907;-79
2023/04/30 05:30:52;;;;;;;7.07;4.63;;;;;;;6.57;90.19;101520.81;5017840;28;20286;-79
2023/04/30 05:33:19;;;;;;;7.50;3.60;;;;;;;6.59;90.31;101547.66;5018287;28;20215;-79
2023/04/30 05:35:45;;;;;;;5.13;3.80;;;;;;;6.66;89.44;101559.88;5018075;28;20602;-79
2023/04/30 05:38:11;;;;;;;5.13;4.13;;;;;;;6.79;89.02;101581.69;5019113;28;20262;-80
2023/04/30 05:40:38;;;;;;;5.90;4.27;;;;;;;6.80;88.71;101601.63;5017339;28;20231;-79
2023/04/30 05:43:05;;;;;;;7.13;3.53;;;;;;;6.82;87.84;101609.41;5018008;28;20242;-79
2023/04/30 05:45:32;;;;;;;5.13;3.63;;;;;;;6.85;87.96;101632.81;5018251;28;20211;-79
2023/04/30 05:47:58;;;;;;;7.17;3.60;;;;;;;6.90;86.22;101645.03;5017345;28;20232;-79
2023/04/30 05:50:24;;;;;;;11.47;3.50;;;;;;;6.93;86.35;101657.16;5017314;28;20290;-79
2023/04/30 05:52:51;;;;;;;5.37;3.77;;;;;;;6.93;86.94;101662.34;5017185;28;20207;-79
2023/04/30 05:55:17;;;;;;;8.47;4.23;;;;;;;6.92;86.83;101661.50;5017125;28;20205;-79
2023/04/30 05:57:43;;;;;;;5.20;3.93;;;;;;;6.94;86.79;101666.72;5017440;28;20259;-79
2023/04/30 06:00:12;;;;;;;4.37;3.77;;;;;;;6.99;85.73;101684.94;5017223;28;20228;-79
2023/04/30 06:02:39;;;;;;;7.57;4.00;;;;;;;7.03;85.29;101704.91;5017256;28;20204;-79
2023/04/30 06:05:08;;;;;;;7.50;4.43;;;;;;;7.03;84.40;101721.34;5017906;28;20242;-79
2023/04/30 06:07:34;;;;;;;5.00;3.07;;;;;;;7.05;85.26;101718.78;5017858;28;20278;-80
2023/04/30 06:10:00;;;;;;;5.27;3.40;;;;;;;7.11;84.86;101724.06;5017337;28;20232;-79
2023/04/30 06:12:27;;;;;;;7.27;3.50;;;;;;;7.16;84.94;101730.22;5017684;28;20215;-79
2023/04/30 06:14:53;;;;;;;4.70;3.53;;;;;;;7.20;84.26;101729.44;5017508;28;20262;-78
2023/04/30 06:17:21;;;;;;;6.77;3.67;;;;;;;7.24;84.10;101736.41;5016696;28;20203;-79
2023/04/30 06:19:47;;;;;;;5.87;3.77;;;;;;;7.26;81.68;101762.41;5016843;28;20227;-79
2023/04/30 06:22:13;;;;;;;7.47;4.30;;;;;;;7.29;80.46;101806.59;5016643;28;20262;-79
2023/04/30 06:24:39;;;;;;;8.40;3.53;;;;;;;7.32;81.03;101833.50;5016663;28;20206;-79
2023/04/30 06:27:06;;;;;;;6.43;3.70;;;;;;;7.38;80.97;101837.94;5017181;28;20231;-79
2023/04/30 06:29:32;;;;;;;5.83;3.27;;;;;;;7.41;80.14;101845.75;5016667;28;20262;-79
2023/04/30 06:31:58;;;;;;;5.03;3.80;;;;;;;7.43;79.42;101867.44;5016452;28;20210;-79
2023/04/30 06:34:26;;;;;;;5.23;3.40;;;;;;;7.45;79.67;101872.66;5016656;28;20208;-79
2023/04/30 06:36:52;;;;;;;4.70;2.73;;;;;;;7.49;79.02;101877.97;5016608;28;20204;-79
2023/04/30 06:39:19;;;;;;;3.87;2.53;;;;;;;7.50;78.17;101905.69;5017139;28;20273;-79
2023/04/30 06:41:46;;;;;;;6.20;2.90;;;;;;;7.54;77.11;101930.88;5016507;28;20709;-79
2023/04/30 06:44:12;;;;;;;4.03;3.10;;;;;;;7.61;75.95;101957.84;5015895;28;20211;-79
2023/04/30 06:46:39;;;;;;;6.73;3.20;;;;;;;7.65;73.87;102002.94;5015702;28;20416;-79
2023/04/30 06:49:05;;;;;;;5.60;2.80;;;;;;;7.64;72.76;102033.25;5015229;28;20203;-79
2023/04/30 06:51:33;;;;;;;3.77;2.53;;;;;;;7.70;73.55;102059.34;5015784;28;20233;-79
2023/04/30 06:53:59;;;;;;;5.47;2.87;;;;;;;7.72;73.84;102052.47;5015815;28;20305;-78
2023/04/30 06:56:25;;;;;;;5.03;2.73;;;;;;;7.78;73.60;102074.25;5016097;28;20294;-79
2023/04/30 06:58:52;;;;;;;10.20;3.60;;;;;;;7.82;72.67;102083.84;5014696;28;20554;-79
2023/04/30 07:01:18;;;;;;;4.00;2.80;;;;;;;7.85;72.48;102102.09;5013980;28;20793;-78
2023/04/30 07:03:44;;;;;;;4.47;2.67;;;;;;;7.85;72.47;102115.97;5012881;28;20261;-79
2023/04/30 07:06:11;;;;;;;4.70;2.93;;;;;;;7.86;71.67;102124.66;5015160;28;20210;-78
2023/04/30 07:08:40;;;;;;;7.03;3.40;;;;;;;7.91;71.60;102134.28;5015598;28;20223;-78
2023/04/30 07:11:06;;;;;;;7.43;3.07;;;;;;;7.93;71.99;102122.19;5015585;28;20234;-79
2023/04/30 07:13:32;;;;;;;4.40;2.83;;;;;;;8.00;70.23;102145.72;5013017;28;20203;-78
2023/04/30 07:15:59;;;;;;;5.03;2.70;;;;;;;7.98;70.08;102176.00;5012693;28;20683;-80
2023/04/30 07:18:25;;;;;;;5.77;2.87;;;;;;;8.04;69.75;102174.41;5012663;28;20674;-78
2023/04/30 07:20:51;;;;;;;7.20;3.33;;;;;;;8.05;70.56;102189.19;5012643;28;20255;-79
2023/04/30 07:23:18;;;;;;;5.50;3.67;;;;;;;8.04;72.12;102161.41;5012915;28;20257;-78
2023/04/30 07:25:45;;;;;;;5.43;2.90;;;;;;;8.14;71.07;102154.66;5012964;28;20209;-79
2023/04/30 07:28:12;;;;;;;5.93;2.80;;;;;;;8.19;70.77;102154.75;5012748;28;20247;-79
2023/04/30 07:30:38;;;;;;;7.93;3.30;;;;;;;8.30;70.54;102159.28;5012818;28;20306;-78
2023/04/30 07:33:06;;;;;;;6.17;2.77;;;;;;;8.42;69.06;102173.41;5013090;28;20621;-78
2023/04/30 07:35:32;;;;;;;6.80;2.83;;;;;;;8.47;69.12;102193.47;5014299;28;20215;-78
2023/04/30 07:37:59;;;;;;;7.63;3.00;;;;;;;8.55;69.43;102193.59;5013164;28;20546;-78
2023/04/30 07:40:25;;;;;;;5.03;2.73;;;;;;;8.60;68.63;102194.53;5012983;28;20227;-78
2023/04/30 07:42:53;;;;;;;6.80;2.37;;;;;;;8.63;67.80;102215.44;5013705;28;20257;-79
2023/04/30 07:45:20;;;;;;;4.17;2.93;;;;;;;8.59;69.12;102221.44;5013341;28;20585;-79
2023/04/30 07:47:47;;;;;;;7.07;3.27;;;;;;;8.49;70.27;102209.97;5012622;28;20273;-79
2023/04/30 07:50:15;;;;;;;5.77;3.03;;;;;;;8.59;69.13;102189.34;5013211;28;20651;-79
2023/04/30 07:52:41;;;;;;;5.07;2.73;;;;;;;8.58;68.63;102209.25;5013834;28;20208;-79
2023/04/30 07:55:09;;;;;;;5.63;3.00;;;;;;;8.59;67.69;102216.22;5013496;28;20630;-78
2023/04/30 07:57:35;;;;;;;5.37;3.17;;;;;;;8.55;70.95;102194.47;5013416;28;20207;-79
2023/04/30 08:00:03;;;;;;;4.90;2.43;;;;;;;8.65;68.29;102176.41;5012352;28;20234;-79
2023/04/30 08:02:30;;;;;;;4.40;2.80;;;;;;;8.73;67.63;102203.44;5012664;28;20235;-78
2023/04/30 08:04:56;;;;;;;5.93;2.77;;;;;;;8.79;67.17;102218.31;5012790;28;20209;-79
2023/04/30 08:07:24;;;;;;;4.03;2.80;;;;;;;8.83;67.78;102223.59;5012500;28;20731;-78
2023/04/30 08:09:50;;;;;;;6.80;2.97;;;;;;;8.85;66.81;102221.88;5012346;28;20737;-79
2023/04/30 08:12:17;;;;;;;5.37;3.87;;;;;;;8.83;69.93;102246.16;5012980;28;20273;-78
2023/04/30 08:14:43;;;;;;;6.87;3.10;;;;;;;8.89;67.67;102199.38;5012138;28;20262;-79
2023/04/30 08:17:11;;;;;;;6.23;3.20;;;;;;;8.93;65.89;102220.28;5014522;28;20637;-78
2023/04/30 08:19:37;;;;;;;5.87;2.77;;;;;;;8.96;65.10;102245.53;5017923;28;20213;-77
2023/04/30 08:22:03;;;;;;;6.13;2.53;;;;;;;9.01;65.52;102269.91;5018160;28;20747;-78
2023/04/30 08:24:30;;;;;;;4.37;2.90;;;;;;;9.05;65.02;102286.47;5017509;28;20675;-78
2023/04/30 08:26:56;;;;;;;4.70;3.37;;;;;;;9.00;64.20;102288.09;5016973;28;20204;-77
2023/04/30 08:29:22;;;;;;;5.93;2.90;;;;;;;9.01;64.87;102303.75;5017365;28;20280;-78
2023/04/30 08:31:49;;;;;;;7.20;3.87;;;;;;;8.97;66.98;102296.75;5017685;28;20237;-78
2023/04/30 08:34:17;;;;;;;6.00;3.47;;;;;;;9.00;66.44;102247.31;5018170;28;20214;-78
2023/04/30 08:36:43;;;;;;;4.87;3.17;;;;;;;9.08;66.45;102235.28;5017255;28;20209;-79
2023/04/30 08:39:09;;;;;;;5.67;2.53;;;;;;;9.18;65.25;102245.84;5018919;28;20206;-80
2023/04/30 08:41:38;;;;;;;5.63;3.13;;;;;;;9.22;65.02;102258.97;5017139;28;20264;-79
2023/04/30 08:44:05;;;;;;;6.10;3.00;;;;;;;9.29;64.37;102275.56;5017687;28;20206;-78
2023/04/30 08:46:34;;;;;;;6.87;3.17;;;;;;;9.35;65.01;102254.81;5017629;28;20239;-78
2023/04/30 08:49:00;;;;;;;7.03;3.40;;;;;;;9.35;65.05;102270.44;5016748;28;20225;-78
2023/04/30 08:51:31;;;;;;;6.70;3.37;;;;;;;9.38;65.00;102274.84;5016071;28;20718;-78
2023/04/30 08:53:57;;;;;;;5.33;3.37;;;;;;;9.52;66.61;102197.72;5015707;28;20213;-78
2023/04/30 08:56:24;;;;;;;4.33;2.90;;;;;;;9.57;63.61;102224.72;5015497;28;20213;-78
2023/04/30 08:58:50;;;;;;;7.93;2.90;;;;;;;9.59;63.00;102293.41;5015288;28;20213;-78
2023/04/30 09:01:17;;;;;;;5.13;3.30;;;;;;;9.49;61.25;102328.00;5015030;28;20647;-78
2023/04/30 09:03:43;;;;;;;4.60;2.87;;;;;;;9.32;61.14;102361.63;5015243;28;20207;-78
2023/04/30 09:06:09;;;;;;;5.27;3.23;;;;;;;9.44;61.49;102363.56;5015333;28;20206;-78
2023/04/30 09:08:45;;;;;;;5.10;2.73;;;;;;;9.36;60.79;102384.28;5014788;28;20229;-77
2023/04/30 09:11:23;;;;;;;6.43;3.20;;;;;;;9.42;60.91;102396.56;5014619;28;20749;-78
2023/04/30 09:13:52;;;;;;;5.87;3.63;;;;;;;9.54;65.65;102374.16;5006889;28;20209;-78
2023/04/30 09:16:19;;;;;;;6.37;3.37;;;;;;;9.63;62.34;102336.94;5006548;28;20558;-78
2023/04/30 09:18:46;;;;;;;5.70;3.47;;;;;;;9.64;61.41;102341.28;5004499;28;20197;-78
2023/04/30 09:21:12;;;;;;;6.13;3.30;;;;;;;9.71;61.49;102356.19;5005608;28;20359;-78
2023/04/30 09:23:54;;;;;;;5.00;3.30;;;;;;;9.74;61.68;102363.19;5003831;28;20255;-78
2023/04/30 09:26:25;;;;;;;6.00;3.10;;;;;;;9.74;63.37;102371.00;5004346;28;20840;-77
2023/04/30 09:28:55;;;;;;;7.73;2.83;;;;;;;9.66;62.07;102354.38;5003823;28;20273;-78
2023/04/30 09:31:21;;;;;;;7.10;3.10;;;;;;;9.79;61.20;102343.28;5005126;28;20272;-78
2023/04/30 09:33:47;;;;;;;4.40;2.50;;;;;;;9.90;61.29;102361.69;5002577;28;20207;-77
2023/04/30 09:36:14;;;;;;;4.60;2.70;;;;;;;9.98;60.89;102356.56;5004419;28;20206;-78
2023/04/30 09:38:40;;;;;;;5.50;2.97;;;;;;;9.98;60.01;102367.00;4998650;28;20622;-77
2023/04/30 09:41:22;;;;;;;4.63;3.40;;;;;;;10.02;59.94;102387.06;4995815;28;20257;-77
2023/04/30 09:43:48;;;;;;;6.40;3.10;;;;;;;10.04;59.94;102391.44;5012770;28;20754;-78
2023/04/30 09:46:15;;;;;;;6.57;2.83;;;;;;;10.02;60.63;102384.47;5016091;28;20694;-78
2023/04/30 09:48:41;;;;;;;4.50;2.90;;;;;;;10.03;60.07;102368.84;5015287;28;20742;-78
2023/04/30 09:51:08;;;;;;;4.87;2.63;;;;;;;10.11;60.39;102368.94;5016288;28;20260;-76
2023/04/30 09:53:37;;;;;;;4.43;2.70;;;;;;;10.23;59.46;102363.03;5017428;28;20281;-79
2023/04/30 09:56:08;;;;;;;6.97;3.10;;;;;;;10.24;57.53;102375.19;5016877;28;20264;-77
2023/04/30 09:58:37;;;;;;;4.50;2.80;;;;;;;10.27;57.06;102417.03;5016524;28;20206;-77
2023/04/30 10:01:06;;;;;;;6.70;2.60;;;;;;;10.33;56.09;102443.25;5016949;28;20582;-78
2023/04/30 10:03:33;;;;;;;7.07;2.63;;;;;;;10.35;56.84;102470.25;5016748;28;20238;-78
2023/04/30 10:06:00;;;;;;;5.67;2.50;;;;;;;10.36;56.43;102466.75;5016069;28;20207;-78
2023/04/30 10:08:28;;;;;;;5.93;2.50;;;;;;;10.44;56.37;102467.75;5015796;28;20292;-78
2023/04/30 10:10:59;;;;;;;4.50;3.13;;;;;;;10.47;57.26;102486.09;5015326;28;20223;-77
2023/04/30 10:13:30;;;;;;;8.27;2.90;;;;;;;10.48;57.10;102466.94;5015828;28;20220;-78
2023/04/30 10:16:01;;;;;;;4.97;2.83;;;;;;;10.57;55.75;102478.38;5014954;28;20216;-78
2023/04/30 10:18:31;;;;;;;4.83;2.97;;;;;;;10.65;56.25;102489.81;5015192;28;20289;-78
2023/04/30 10:21:01;;;;;;;5.00;2.53;;;;;;;10.70;55.71;102486.41;5015352;28;20225;-77
2023/04/30 10:23:29;;;;;;;7.40;2.80;;;;;;;10.77;55.47;102487.38;5017066;28;20263;-78
2023/04/30 10:25:57;;;;;;;4.70;2.50;;;;;;;10.79;54.46;102492.63;5017011;28;20215;-78
2023/04/30 10:28:25;;;;;;;3.30;2.40;;;;;;;10.78;56.53;102496.94;5016940;28;20223;-78
2023/04/30 10:30:54;;;;;;;4.83;2.23;;;;;;;10.82;54.18;102479.56;5047519;23;20255;-85
2023/04/30 10:33:29;;;;;;;6.23;3.33;;;;;;;10.86;54.79;102500.56;5043677;28;20213;-85
2023/04/30 10:35:59;;;;;;;4.17;2.63;;;;;;;11.01;55.05;102497.25;5042425;28;20234;-85
2023/04/30 10:38:29;;;;;;;3.00;2.53;;;;;;;11.08;54.77;102491.25;5042471;28;20216;-84
2023/04/30 10:40:57;;;;;;;4.07;2.33;;;;;;;11.13;55.85;102489.53;5041321;28;20235;-85
2023/04/30 10:43:24;;;;;;;4.43;2.47;;;;;;;11.31;55.96;102459.25;5042578;28;20213;-86
2023/04/30 10:45:50;;;;;;;3.50;2.10;;;;;;;11.41;55.77;102470.69;5040403;28;20635;-85
2023/04/30 10:48:24;;;;;;;4.77;2.60;;;;;;;11.59;53.69;102467.38;5040699;28;20233;-85
2023/04/30 10:50:52;;;;;;;4.23;2.60;;;;;;;11.65;53.56;102473.53;5040845;28;20237;-85
2023/04/30 10:53:21;;;;;;;5.33;3.10;;;;;;;11.65;52.00;102497.06;5042156;28;20213;-85
2023/04/30 10:55:51;;;;;;;5.87;2.60;;;;;;;11.63;52.18;102524.09;5041391;28;20205;-83
2023/04/30 10:58:25;;;;;;;5.57;2.70;;;;;;;11.73;52.42;102532.06;5040544;28;20236;-85
2023/04/30 11:01:00;;;;;;;4.13;2.40;;;;;;;11.74;51.44;102551.25;5039954;28;20291;-84
2023/04/30 11:03:30;;;;;;;6.53;2.67;;;;;;;11.88;51.83;102547.03;5040178;28;20204;-84
2023/04/30 11:05:56;;;;;;;3.33;2.50;;;;;;;11.95;51.86;102565.44;5038162;28;20216;-84
2023/04/30 11:08:32;;;;;;;7.33;2.30;;;;;;;12.16;52.15;102538.56;5038090;28;20265;-85
2023/04/30 11:11:00;;;;;;;4.07;2.20;;;;;;;12.31;50.90;102544.81;5039648;28;20355;-85
2023/04/30 11:13:28;;;;;;;4.50;2.20;;;;;;;12.11;49.44;102555.13;5038525;28;20211;-84
2023/04/30 11:15:54;;;;;;;4.63;3.00;;;;;;;12.29;51.17;102577.97;5039116;28;20749;-84
2023/04/30 11:18:21;;;;;;;5.30;2.30;;;;;;;12.49;50.01;102569.41;5041297;28;20700;-84
2023/04/30 11:20:51;;;;;;;6.67;2.20;;;;;;;12.58;47.84;102593.03;5040477;28;20251;-84
2023/04/30 11:23:22;;;;;;;4.73;3.00;;;;;;;12.64;47.50;102611.41;5039441;28;20214;-84
2023/04/30 11:25:49;;;;;;;2.53;2.20;;;;;;;12.84;49.45;102674.47;5039278;28;20262;-84
2023/04/30 11:28:17;;;;;;;5.30;2.20;;;;;;;13.30;49.43;102618.84;5041616;28;20201;-83
2023/04/30 11:30:51;;;;;;;5.13;3.27;;;;;;;14.14;45.71;102581.47;5041865;28;20259;-85
2023/04/30 11:33:18;;;;;;;3.67;2.33;;;;;;;15.00;42.38;102610.31;5040395;28;20749;-84